SPJL/JUL METAR and TAF weather

Enter ICAO airport designator
Station Type Date Time Source
SPJL METAR 2019/04/20 23:00 UTC NOAA

SPJL 202300Z 09007KT 9999 VCTS BKN020 BKN080 13/05 Q1034 RMK TS W PP000


Station Type Date Time Source
SPJL Decoded METAR 2019/04/20 23:00 UTC NOAA

Juliaca, Peru (SPJL) 15-29S 070-09W 3827M
Apr 20, 2019 - 07:00 PM EDT / 2019.04.20 2300 UTC
Wind: from the E (090 degrees) at 8 MPH (7 KT):0
Visibility: greater than 7 mile(s):0
Sky conditions: mostly cloudy
Weather: thunder in the vicinity
Temperature: 55 F (13 C)
Dew Point: 41 F (5 C)
Relative Humidity: 58%
Pressure (altimeter): 30.53 in. Hg (1034 hPa)
ob: SPJL 202300Z 09007KT 9999 VCTS BKN020 BKN080 13/05 Q1034 RMK TS W PP000
cycle: 23

Station Type Date Time Source
SPJL TAF 2019/04/20 18:33 UTC NOAA

TAF SPJL 201700Z 2018/2118 10006KT 9999 SCT020 TX16/2019Z TN04/2110Z
FM210000 24007KT 9999 SCT015 BKN080
FM211100 VRB04KT 9999 BKN020

Example: see airport list